sensor_id;sensor_type;location;lat;lon;timestamp;pressure;altitude;pressure_sealevel;temperature;humidity
72612;BME280;60655;52.182;4.474;2022-08-19T00:00:09;101440.19;;;18.97;81.16
72612;BME280;60655;52.182;4.474;2022-08-19T00:02:10;101445.13;;;19.10;80.96
72612;BME280;60655;52.182;4.474;2022-08-19T00:04:13;101439.13;;;18.98;81.44
72612;BME280;60655;52.182;4.474;2022-08-19T00:06:15;101452.84;;;18.96;81.05
72612;BME280;60655;52.182;4.474;2022-08-19T00:08:16;101440.16;;;18.92;81.18
72612;BME280;60655;52.182;4.474;2022-08-19T00:10:19;101448.47;;;18.90;81.67
72612;BME280;60655;52.182;4.474;2022-08-19T00:12:20;101438.19;;;18.82;81.90
72612;BME280;60655;52.182;4.474;2022-08-19T00:14:22;101449.50;;;18.84;82.10
72612;BME280;60655;52.182;4.474;2022-08-19T00:16:25;101433.28;;;18.79;82.07
72612;BME280;60655;52.182;4.474;2022-08-19T00:18:26;101442.50;;;18.83;81.67
72612;BME280;60655;52.182;4.474;2022-08-19T00:20:27;101434.13;;;18.79;82.07
72612;BME280;60655;52.182;4.474;2022-08-19T00:22:28;101441.13;;;18.80;82.03
72612;BME280;60655;52.182;4.474;2022-08-19T00:24:29;101436.91;;;18.89;81.71
72612;BME280;60655;52.182;4.474;2022-08-19T00:26:30;101441.59;;;18.72;82.16
72612;BME280;60655;52.182;4.474;2022-08-19T00:28:32;101434.59;;;18.71;81.53
72612;BME280;60655;52.182;4.474;2022-08-19T00:30:33;101443.22;;;18.73;81.52
72612;BME280;60655;52.182;4.474;2022-08-19T00:32:34;101437.84;;;18.73;81.13
72612;BME280;60655;52.182;4.474;2022-08-19T00:34:35;101443.59;;;18.87;80.77
72612;BME280;60655;52.182;4.474;2022-08-19T00:36:36;101451.88;;;18.80;80.81
72612;BME280;60655;52.182;4.474;2022-08-19T00:38:39;101433.78;;;18.71;80.80
72612;BME280;60655;52.182;4.474;2022-08-19T00:40:43;101433.03;;;18.75;80.32
72612;BME280;60655;52.182;4.474;2022-08-19T00:42:47;101439.97;;;18.71;81.36
72612;BME280;60655;52.182;4.474;2022-08-19T00:44:49;101427.09;;;18.73;80.96
72612;BME280;60655;52.182;4.474;2022-08-19T00:46:52;101449.13;;;18.70;81.50
72612;BME280;60655;52.182;4.474;2022-08-19T00:48:53;101446.94;;;18.67;81.58
72612;BME280;60655;52.182;4.474;2022-08-19T00:50:55;101440.81;;;18.77;81.21
72612;BME280;60655;52.182;4.474;2022-08-19T00:52:57;101434.16;;;18.58;81.31
72612;BME280;60655;52.182;4.474;2022-08-19T00:55:01;101424.88;;;18.43;82.59
72612;BME280;60655;52.182;4.474;2022-08-19T00:57:06;101411.19;;;18.45;82.02
72612;BME280;60655;52.182;4.474;2022-08-19T00:59:08;101433.34;;;18.57;81.73
72612;BME280;60655;52.182;4.474;2022-08-19T01:01:10;101433.53;;;18.50;81.93
72612;BME280;60655;52.182;4.474;2022-08-19T01:03:14;101434.91;;;18.53;81.96
72612;BME280;60655;52.182;4.474;2022-08-19T01:05:27;101438.41;;;18.53;82.11
72612;BME280;60655;52.182;4.474;2022-08-19T01:07:29;101438.97;;;18.55;82.13
72612;BME280;60655;52.182;4.474;2022-08-19T01:09:31;101440.53;;;18.46;82.50
72612;BME280;60655;52.182;4.474;2022-08-19T01:11:36;101439.97;;;18.44;82.27
72612;BME280;60655;52.182;4.474;2022-08-19T01:13:39;101446.19;;;18.50;81.99
72612;BME280;60655;52.182;4.474;2022-08-19T01:15:53;101445.03;;;18.41;82.04
72612;BME280;60655;52.182;4.474;2022-08-19T01:18:02;101442.78;;;18.33;82.09
72612;BME280;60655;52.182;4.474;2022-08-19T01:20:05;101453.09;;;18.41;81.81
72612;BME280;60655;52.182;4.474;2022-08-19T01:22:15;101442.47;;;18.29;81.77
72612;BME280;60655;52.182;4.474;2022-08-19T01:24:18;101458.41;;;18.36;81.62
72612;BME280;60655;52.182;4.474;2022-08-19T01:26:21;101454.47;;;18.21;82.02
72612;BME280;60655;52.182;4.474;2022-08-19T01:28:26;101456.59;;;18.19;82.05
72612;BME280;60655;52.182;4.474;2022-08-19T01:30:31;101466.13;;;18.27;82.05
72612;BME280;60655;52.182;4.474;2022-08-19T01:32:33;101436.56;;;18.05;82.21
72612;BME280;60655;52.182;4.474;2022-08-19T01:34:34;101450.69;;;18.17;82.20
72612;BME280;60655;52.182;4.474;2022-08-19T01:36:42;101451.78;;;18.21;82.17
72612;BME280;60655;52.182;4.474;2022-08-19T01:38:46;101447.84;;;18.29;81.70
72612;BME280;60655;52.182;4.474;2022-08-19T01:40:47;101443.78;;;18.27;82.40
72612;BME280;60655;52.182;4.474;2022-08-19T01:42:49;101447.59;;;18.31;82.41
72612;BME280;60655;52.182;4.474;2022-08-19T01:44:50;101444.22;;;18.40;81.95
72612;BME280;60655;52.182;4.474;2022-08-19T01:46:51;101435.28;;;18.35;81.89
72612;BME280;60655;52.182;4.474;2022-08-19T01:48:52;101448.59;;;18.46;81.55
72612;BME280;60655;52.182;4.474;2022-08-19T01:50:53;101447.25;;;18.49;81.25
72612;BME280;60655;52.182;4.474;2022-08-19T01:52:54;101457.81;;;18.55;81.20
72612;BME280;60655;52.182;4.474;2022-08-19T01:54:55;101455.84;;;18.46;81.38
72612;BME280;60655;52.182;4.474;2022-08-19T01:57:04;101463.66;;;18.47;81.56
72612;BME280;60655;52.182;4.474;2022-08-19T01:59:12;101460.75;;;18.54;81.54
72612;BME280;60655;52.182;4.474;2022-08-19T02:01:14;101446.50;;;18.53;81.29
72612;BME280;60655;52.182;4.474;2022-08-19T02:03:16;101425.13;;;18.42;81.29
72612;BME280;60655;52.182;4.474;2022-08-19T02:05:17;101455.94;;;18.56;81.24
72612;BME280;60655;52.182;4.474;2022-08-19T02:07:20;101446.19;;;18.50;81.76
72612;BME280;60655;52.182;4.474;2022-08-19T02:09:22;101417.44;;;18.29;81.89
72612;BME280;60655;52.182;4.474;2022-08-19T02:11:26;101454.66;;;18.37;81.92
72612;BME280;60655;52.182;4.474;2022-08-19T02:13:28;101442.78;;;18.33;82.29
72612;BME280;60655;52.182;4.474;2022-08-19T02:15:29;101442.16;;;18.26;83.02
72612;BME280;60655;52.182;4.474;2022-08-19T02:17:30;101447.97;;;18.39;82.74
72612;BME280;60655;52.182;4.474;2022-08-19T02:19:32;101447.72;;;18.41;82.80
72612;BME280;60655;52.182;4.474;2022-08-19T02:21:33;101451.81;;;18.48;83.07
72612;BME280;60655;52.182;4.474;2022-08-19T02:23:34;101447.53;;;18.47;83.06
72612;BME280;60655;52.182;4.474;2022-08-19T02:25:36;101444.53;;;18.44;82.83
72612;BME280;60655;52.182;4.474;2022-08-19T02:27:37;101433.28;;;18.52;82.54
72612;BME280;60655;52.182;4.474;2022-08-19T02:29:38;101436.78;;;18.47;82.63
72612;BME280;60655;52.182;4.474;2022-08-19T02:31:38;101427.25;;;18.40;82.29
72612;BME280;60655;52.182;4.474;2022-08-19T02:33:40;101446.75;;;18.52;82.26
72612;BME280;60655;52.182;4.474;2022-08-19T02:35:43;101431.06;;;18.44;82.33
72612;BME280;60655;52.182;4.474;2022-08-19T02:37:44;101456.91;;;18.45;83.10
72612;BME280;60655;52.182;4.474;2022-08-19T02:40:21;101434.31;;;18.46;82.97
72612;BME280;60655;52.182;4.474;2022-08-19T02:42:22;101435.97;;;18.52;83.02
72612;BME280;60655;52.182;4.474;2022-08-19T02:44:23;101440.84;;;18.55;82.92
72612;BME280;60655;52.182;4.474;2022-08-19T02:46:28;101434.41;;;18.56;83.01
72612;BME280;60655;52.182;4.474;2022-08-19T02:48:29;101429.84;;;18.56;83.07
72612;BME280;60655;52.182;4.474;2022-08-19T02:50:33;101429.78;;;18.51;83.33
72612;BME280;60655;52.182;4.474;2022-08-19T02:52:37;101431.84;;;18.66;83.64
72612;BME280;60655;52.182;4.474;2022-08-19T02:54:38;101435.63;;;18.65;84.06
72612;BME280;60655;52.182;4.474;2022-08-19T02:56:40;101412.25;;;18.44;84.40
72612;BME280;60655;52.182;4.474;2022-08-19T02:58:42;101406.13;;;18.53;83.96
72612;BME280;60655;52.182;4.474;2022-08-19T03:00:49;101411.56;;;18.59;84.62
72612;BME280;60655;52.182;4.474;2022-08-19T03:02:50;101402.50;;;18.65;85.46
72612;BME280;60655;52.182;4.474;2022-08-19T03:04:51;101402.38;;;18.81;84.50
72612;BME280;60655;52.182;4.474;2022-08-19T03:06:52;101396.69;;;18.78;84.72
72612;BME280;60655;52.182;4.474;2022-08-19T03:08:53;101402.41;;;18.86;84.29
72612;BME280;60655;52.182;4.474;2022-08-19T03:10:54;101401.38;;;18.93;84.09
72612;BME280;60655;52.182;4.474;2022-08-19T03:12:55;101403.34;;;19.02;83.68
72612;BME280;60655;52.182;4.474;2022-08-19T03:14:56;101401.72;;;19.01;83.68
72612;BME280;60655;52.182;4.474;2022-08-19T03:16:57;101398.22;;;19.01;83.49
72612;BME280;60655;52.182;4.474;2022-08-19T03:18:58;101402.59;;;19.12;83.21
72612;BME280;60655;52.182;4.474;2022-08-19T03:21:02;101396.06;;;18.98;83.90
72612;BME280;60655;52.182;4.474;2022-08-19T03:23:03;101402.00;;;19.00;84.21
72612;BME280;60655;52.182;4.474;2022-08-19T03:25:05;101411.19;;;19.04;83.88
72612;BME280;60655;52.182;4.474;2022-08-19T03:27:06;101406.34;;;19.11;83.44
72612;BME280;60655;52.182;4.474;2022-08-19T03:29:07;101405.75;;;18.99;83.77
72612;BME280;60655;52.182;4.474;2022-08-19T03:31:13;101402.59;;;19.12;83.36
72612;BME280;60655;52.182;4.474;2022-08-19T03:33:14;101403.41;;;19.12;83.17
72612;BME280;60655;52.182;4.474;2022-08-19T03:35:15;101405.53;;;19.10;83.59
72612;BME280;60655;52.182;4.474;2022-08-19T03:37:16;101397.81;;;19.19;83.19
72612;BME280;60655;52.182;4.474;2022-08-19T03:39:17;101388.81;;;19.03;84.07
72612;BME280;60655;52.182;4.474;2022-08-19T03:41:22;101392.94;;;19.16;83.56
72612;BME280;60655;52.182;4.474;2022-08-19T03:43:23;101401.31;;;19.19;83.34
72612;BME280;60655;52.182;4.474;2022-08-19T03:45:25;101406.22;;;19.28;82.86
72612;BME280;60655;52.182;4.474;2022-08-19T03:47:26;101405.63;;;19.20;83.45
72612;BME280;60655;52.182;4.474;2022-08-19T03:49:29;101398.94;;;19.28;83.08
72612;BME280;60655;52.182;4.474;2022-08-19T03:51:36;101396.56;;;19.32;82.82
72612;BME280;60655;52.182;4.474;2022-08-19T03:53:37;101402.19;;;19.35;82.38
72612;BME280;60655;52.182;4.474;2022-08-19T03:55:40;101399.75;;;19.29;82.36
72612;BME280;60655;52.182;4.474;2022-08-19T03:57:41;101410.16;;;19.15;83.55
72612;BME280;60655;52.182;4.474;2022-08-19T03:59:42;101406.88;;;19.08;84.06
72612;BME280;60655;52.182;4.474;2022-08-19T04:01:44;101415.03;;;19.18;83.59
72612;BME280;60655;52.182;4.474;2022-08-19T04:03:45;101411.78;;;19.16;83.59
72612;BME280;60655;52.182;4.474;2022-08-19T04:05:50;101411.22;;;19.14;83.76
72612;BME280;60655;52.182;4.474;2022-08-19T04:07:51;101405.84;;;19.14;83.74
72612;BME280;60655;52.182;4.474;2022-08-19T04:09:52;101415.44;;;19.00;84.98
72612;BME280;60655;52.182;4.474;2022-08-19T04:11:55;101410.63;;;19.07;84.18
72612;BME280;60655;52.182;4.474;2022-08-19T04:13:57;101411.44;;;19.02;84.74
72612;BME280;60655;52.182;4.474;2022-08-19T04:15:57;101411.69;;;19.01;84.63
72612;BME280;60655;52.182;4.474;2022-08-19T04:17:59;101415.28;;;19.16;83.92
72612;BME280;60655;52.182;4.474;2022-08-19T04:20:00;101420.59;;;19.06;84.39
72612;BME280;60655;52.182;4.474;2022-08-19T04:22:01;101415.97;;;18.97;84.58
72612;BME280;60655;52.182;4.474;2022-08-19T04:24:03;101419.81;;;19.11;83.63
72612;BME280;60655;52.182;4.474;2022-08-19T04:26:04;101423.16;;;19.23;83.20
72612;BME280;60655;52.182;4.474;2022-08-19T04:28:06;101428.59;;;19.28;82.73
72612;BME280;60655;52.182;4.474;2022-08-19T04:30:08;101422.69;;;19.31;82.47
72612;BME280;60655;52.182;4.474;2022-08-19T04:32:09;101420.25;;;19.30;82.65
72612;BME280;60655;52.182;4.474;2022-08-19T04:34:11;101409.38;;;19.19;83.08
72612;BME280;60655;52.182;4.474;2022-08-19T04:36:22;101429.91;;;19.26;83.51
72612;BME280;60655;52.182;4.474;2022-08-19T04:38:23;101418.09;;;19.32;82.81
72612;BME280;60655;52.182;4.474;2022-08-19T04:40:24;101419.72;;;19.38;82.49
72612;BME280;60655;52.182;4.474;2022-08-19T04:42:44;101412.72;;;19.32;82.42
72612;BME280;60655;52.182;4.474;2022-08-19T04:44:45;101412.13;;;19.25;82.83
72612;BME280;60655;52.182;4.474;2022-08-19T04:46:47;101408.91;;;19.28;82.34
72612;BME280;60655;52.182;4.474;2022-08-19T04:48:49;101412.97;;;19.30;82.44
72612;BME280;60655;52.182;4.474;2022-08-19T04:50:50;101415.16;;;19.33;82.07
72612;BME280;60655;52.182;4.474;2022-08-19T04:52:51;101417.25;;;19.26;82.91
72612;BME280;60655;52.182;4.474;2022-08-19T04:54:52;101417.72;;;19.18;83.58
72612;BME280;60655;52.182;4.474;2022-08-19T04:56:55;101419.09;;;19.20;83.34
72612;BME280;60655;52.182;4.474;2022-08-19T04:58:57;101418.06;;;19.27;83.18
72612;BME280;60655;52.182;4.474;2022-08-19T05:00:58;101421.78;;;19.20;83.45
72612;BME280;60655;52.182;4.474;2022-08-19T05:03:00;101422.31;;;19.17;83.84
72612;BME280;60655;52.182;4.474;2022-08-19T05:05:02;101427.78;;;19.28;83.34
72612;BME280;60655;52.182;4.474;2022-08-19T05:07:03;101428.06;;;19.31;83.27
72612;BME280;60655;52.182;4.474;2022-08-19T05:09:05;101424.88;;;19.39;82.68
72612;BME280;60655;52.182;4.474;2022-08-19T05:11:34;101429.69;;;19.37;82.96
72612;BME280;60655;52.182;4.474;2022-08-19T05:13:35;101432.94;;;19.34;83.31
72612;BME280;60655;52.182;4.474;2022-08-19T05:15:36;101427.00;;;19.32;83.60
72612;BME280;60655;52.182;4.474;2022-08-19T05:17:37;101432.34;;;19.27;84.23
72612;BME280;60655;52.182;4.474;2022-08-19T05:19:38;101431.53;;;19.27;84.34
72612;BME280;60655;52.182;4.474;2022-08-19T05:21:59;101435.38;;;19.41;83.73
72612;BME280;60655;52.182;4.474;2022-08-19T05:24:21;101437.00;;;19.42;83.43
72612;BME280;60655;52.182;4.474;2022-08-19T05:26:24;101432.44;;;19.42;83.71
72612;BME280;60655;52.182;4.474;2022-08-19T05:28:26;101433.84;;;19.50;82.93
72612;BME280;60655;52.182;4.474;2022-08-19T05:30:28;101437.31;;;19.45;83.33
72612;BME280;60655;52.182;4.474;2022-08-19T05:32:29;101427.59;;;19.44;83.87
72612;BME280;60655;52.182;4.474;2022-08-19T05:34:30;101427.81;;;19.38;84.21
72612;BME280;60655;52.182;4.474;2022-08-19T05:36:36;101434.91;;;19.49;83.74
72612;BME280;60655;52.182;4.474;2022-08-19T05:38:39;101411.47;;;19.49;83.36
72612;BME280;60655;52.182;4.474;2022-08-19T05:40:40;101412.38;;;19.60;82.45
72612;BME280;60655;52.182;4.474;2022-08-19T05:42:42;101415.34;;;19.69;82.71
72612;BME280;60655;52.182;4.474;2022-08-19T05:44:43;101412.63;;;19.64;83.19
72612;BME280;60655;52.182;4.474;2022-08-19T05:46:45;101412.09;;;19.67;82.87
72612;BME280;60655;52.182;4.474;2022-08-19T05:48:47;101411.63;;;19.75;82.53
72612;BME280;60655;52.182;4.474;2022-08-19T05:50:49;101407.28;;;19.74;82.93
72612;BME280;60655;52.182;4.474;2022-08-19T05:52:50;101410.81;;;19.74;83.00
72612;BME280;60655;52.182;4.474;2022-08-19T05:54:52;101410.81;;;19.74;82.84
72612;BME280;60655;52.182;4.474;2022-08-19T05:56:55;101415.38;;;19.74;83.07
72612;BME280;60655;52.182;4.474;2022-08-19T05:58:57;101409.72;;;19.75;83.20
72612;BME280;60655;52.182;4.474;2022-08-19T06:00:59;101419.41;;;19.71;83.88
72612;BME280;60655;52.182;4.474;2022-08-19T06:03:05;101421.91;;;19.83;82.90
72612;BME280;60655;52.182;4.474;2022-08-19T06:05:07;101424.84;;;19.76;83.29
72612;BME280;60655;52.182;4.474;2022-08-19T06:07:09;101417.88;;;19.85;82.77
72612;BME280;60655;52.182;4.474;2022-08-19T06:09:10;101430.06;;;20.03;81.65
72612;BME280;60655;52.182;4.474;2022-08-19T06:11:21;101422.75;;;19.88;83.29
72612;BME280;60655;52.182;4.474;2022-08-19T06:13:22;101430.56;;;19.90;83.57
72612;BME280;60655;52.182;4.474;2022-08-19T06:15:24;101421.13;;;19.98;83.01
72612;BME280;60655;52.182;4.474;2022-08-19T06:17:29;101414.44;;;20.05;82.69
72612;BME280;60655;52.182;4.474;2022-08-19T06:19:30;101423.03;;;19.97;83.61
72612;BME280;60655;52.182;4.474;2022-08-19T06:21:31;101431.72;;;20.09;82.78
72612;BME280;60655;52.182;4.474;2022-08-19T06:23:33;101417.69;;;20.22;81.54
72612;BME280;60655;52.182;4.474;2022-08-19T06:25:35;101419.59;;;20.27;81.55
72612;BME280;60655;52.182;4.474;2022-08-19T06:27:36;101427.72;;;20.32;81.21
72612;BME280;60655;52.182;4.474;2022-08-19T06:29:37;101417.47;;;20.29;81.44
72612;BME280;60655;52.182;4.474;2022-08-19T06:31:42;101418.00;;;20.31;81.26
72612;BME280;60655;52.182;4.474;2022-08-19T06:33:44;101426.16;;;20.51;80.59
72612;BME280;60655;52.182;4.474;2022-08-19T06:35:45;101424.53;;;20.50;81.00
72612;BME280;60655;52.182;4.474;2022-08-19T06:37:46;101422.38;;;20.52;80.41
72612;BME280;60655;52.182;4.474;2022-08-19T06:39:48;101423.19;;;20.43;82.45
72612;BME280;60655;52.182;4.474;2022-08-19T06:41:52;101420.78;;;20.46;82.03
72612;BME280;60655;52.182;4.474;2022-08-19T06:43:54;101437.97;;;20.35;83.21
72612;BME280;60655;52.182;4.474;2022-08-19T06:45:55;101423.41;;;20.31;83.27
72612;BME280;60655;52.182;4.474;2022-08-19T06:47:57;101423.72;;;20.40;83.81
72612;BME280;60655;52.182;4.474;2022-08-19T06:50:02;101428.63;;;20.63;82.02
72612;BME280;60655;52.182;4.474;2022-08-19T06:52:05;101423.19;;;20.43;83.43
72612;BME280;60655;52.182;4.474;2022-08-19T06:54:06;101419.16;;;20.55;82.85
72612;BME280;60655;52.182;4.474;2022-08-19T06:56:07;101422.69;;;20.81;80.89
72612;BME280;60655;52.182;4.474;2022-08-19T06:58:08;101421.06;;;20.85;81.51
72612;BME280;60655;52.182;4.474;2022-08-19T07:00:10;101416.19;;;20.87;81.59
72612;BME280;60655;52.182;4.474;2022-08-19T07:02:13;101418.91;;;20.77;82.51
72612;BME280;60655;52.182;4.474;2022-08-19T07:04:16;101419.97;;;20.81;83.07
72612;BME280;60655;52.182;4.474;2022-08-19T07:06:19;101414.84;;;20.85;82.79
72612;BME280;60655;52.182;4.474;2022-08-19T07:08:20;101425.38;;;21.02;81.80
72612;BME280;60655;52.182;4.474;2022-08-19T07:10:21;101421.06;;;21.06;81.07
72612;BME280;60655;52.182;4.474;2022-08-19T07:12:22;101424.31;;;21.03;81.82
72612;BME280;60655;52.182;4.474;2022-08-19T07:14:26;101429.72;;;21.03;82.01
72612;BME280;60655;52.182;4.474;2022-08-19T07:16:28;101423.50;;;20.97;81.86
72612;BME280;60655;52.182;4.474;2022-08-19T07:18:29;101436.47;;;20.90;82.63
72612;BME280;60655;52.182;4.474;2022-08-19T07:20:30;101446.72;;;20.83;83.38
72612;BME280;60655;52.182;4.474;2022-08-19T07:22:33;101436.19;;;20.81;82.57
72612;BME280;60655;52.182;4.474;2022-08-19T07:24:35;101447.81;;;20.77;83.57
72612;BME280;60655;52.182;4.474;2022-08-19T07:26:42;101445.91;;;20.82;83.13
72612;BME280;60655;52.182;4.474;2022-08-19T07:28:43;101442.41;;;20.97;82.46
72612;BME280;60655;52.182;4.474;2022-08-19T07:30:45;101444.84;;;21.04;81.79
72612;BME280;60655;52.182;4.474;2022-08-19T07:32:46;101444.00;;;21.13;81.81
72612;BME280;60655;52.182;4.474;2022-08-19T07:34:47;101442.94;;;21.19;81.27
72612;BME280;60655;52.182;4.474;2022-08-19T07:36:48;101455.66;;;21.24;81.99
72612;BME280;60655;52.182;4.474;2022-08-19T07:38:50;101442.94;;;21.09;81.66
72612;BME280;60655;52.182;4.474;2022-08-19T07:40:52;101431.59;;;21.02;81.27
72612;BME280;60655;52.182;4.474;2022-08-19T07:42:53;101454.00;;;21.13;80.97
72612;BME280;60655;52.182;4.474;2022-08-19T07:44:54;101451.03;;;21.14;80.16
72612;BME280;60655;52.182;4.474;2022-08-19T07:46:56;101448.06;;;21.11;80.33
72612;BME280;60655;52.182;4.474;2022-08-19T07:48:58;101435.13;;;21.03;80.14
72612;BME280;60655;52.182;4.474;2022-08-19T07:51:01;101453.72;;;21.09;80.45
72612;BME280;60655;52.182;4.474;2022-08-19T07:53:02;101459.69;;;21.11;80.84
72612;BME280;60655;52.182;4.474;2022-08-19T07:55:05;101447.25;;;21.10;79.97
72612;BME280;60655;52.182;4.474;2022-08-19T07:57:09;101454.31;;;21.27;79.52
72612;BME280;60655;52.182;4.474;2022-08-19T07:59:10;101444.81;;;21.44;78.82
72612;BME280;60655;52.182;4.474;2022-08-19T08:01:16;101445.88;;;21.43;78.20
72612;BME280;60655;52.182;4.474;2022-08-19T08:03:19;101432.41;;;21.23;78.70
72612;BME280;60655;52.182;4.474;2022-08-19T08:05:20;101442.16;;;21.24;78.66
72612;BME280;60655;52.182;4.474;2022-08-19T08:07:39;101449.72;;;21.27;78.54
72612;BME280;60655;52.182;4.474;2022-08-19T08:09:59;101454.53;;;21.40;79.03
72612;BME280;60655;52.182;4.474;2022-08-19T08:12:05;101452.66;;;21.46;78.84
72612;BME280;60655;52.182;4.474;2022-08-19T08:14:07;101463.41;;;21.66;79.03
72612;BME280;60655;52.182;4.474;2022-08-19T08:16:09;101450.13;;;21.80;77.22
72612;BME280;60655;52.182;4.474;2022-08-19T08:18:11;101460.66;;;21.86;76.36
72612;BME280;60655;52.182;4.474;2022-08-19T08:20:13;101463.56;;;21.95;75.91
72612;BME280;60655;52.182;4.474;2022-08-19T08:22:16;101475.78;;;21.93;75.03
72612;BME280;60655;52.182;4.474;2022-08-19T08:24:36;101473.88;;;22.03;74.85
72612;BME280;60655;52.182;4.474;2022-08-19T08:26:38;101471.69;;;22.05;75.14
72612;BME280;60655;52.182;4.474;2022-08-19T08:28:39;101466.59;;;21.94;76.04
72612;BME280;60655;52.182;4.474;2022-08-19T08:30:40;101477.44;;;21.78;76.76
72612;BME280;60655;52.182;4.474;2022-08-19T08:32:43;101466.84;;;21.92;76.43
72612;BME280;60655;52.182;4.474;2022-08-19T08:34:44;101481.22;;;21.82;76.56
72612;BME280;60655;52.182;4.474;2022-08-19T08:36:45;101477.16;;;21.80;75.39
72612;BME280;60655;52.182;4.474;2022-08-19T08:38:47;101475.25;;;21.85;75.44
72612;BME280;60655;52.182;4.474;2022-08-19T08:40:50;101471.94;;;21.99;74.82
72612;BME280;60655;52.182;4.474;2022-08-19T08:45:23;101479.91;;;22.44;74.55
72612;BME280;60655;52.182;4.474;2022-08-19T08:47:26;101483.75;;;22.33;74.73
72612;BME280;60655;52.182;4.474;2022-08-19T08:49:46;101471.31;;;22.27;74.60
72612;BME280;60655;52.182;4.474;2022-08-19T08:52:00;101484.34;;;22.20;74.07
72612;BME280;60655;52.182;4.474;2022-08-19T08:54:07;101485.63;;;22.33;74.13
72612;BME280;60655;52.182;4.474;2022-08-19T08:56:09;101474.91;;;22.17;74.66
72612;BME280;60655;52.182;4.474;2022-08-19T08:58:18;101479.72;;;22.26;74.84
72612;BME280;60655;52.182;4.474;2022-08-19T09:00:25;101488.31;;;22.43;74.41
72612;BME280;60655;52.182;4.474;2022-08-19T09:02:27;101486.72;;;22.32;75.50
72612;BME280;60655;52.182;4.474;2022-08-19T09:04:28;101488.41;;;22.22;74.51
72612;BME280;60655;52.182;4.474;2022-08-19T09:06:40;101495.22;;;22.00;74.93
72612;BME280;60655;52.182;4.474;2022-08-19T09:09:04;101502.28;;;22.01;75.24
72612;BME280;60655;52.182;4.474;2022-08-19T09:11:11;101506.09;;;21.89;76.35
72612;BME280;60655;52.182;4.474;2022-08-19T09:15:40;101490.72;;;21.70;77.29
72612;BME280;60655;52.182;4.474;2022-08-19T09:17:43;101495.56;;;21.78;77.82
72612;BME280;60655;52.182;4.474;2022-08-19T09:19:53;101490.38;;;22.02;77.19
72612;BME280;60655;52.182;4.474;2022-08-19T09:21:55;101496.56;;;22.17;75.36
72612;BME280;60655;52.182;4.474;2022-08-19T09:23:56;101504.13;;;22.20;74.75
72612;BME280;60655;52.182;4.474;2022-08-19T09:25:59;101505.50;;;22.08;75.68
72612;BME280;60655;52.182;4.474;2022-08-19T09:28:00;101508.22;;;22.03;75.26
72612;BME280;60655;52.182;4.474;2022-08-19T09:30:05;101513.91;;;22.06;75.39
72612;BME280;60655;52.182;4.474;2022-08-19T09:32:06;101514.97;;;22.10;75.29
72612;BME280;60655;52.182;4.474;2022-08-19T09:34:07;101503.63;;;22.03;76.31
72612;BME280;60655;52.182;4.474;2022-08-19T09:36:11;101507.41;;;22.07;76.03
72612;BME280;60655;52.182;4.474;2022-08-19T09:38:13;101515.50;;;22.17;75.55
72612;BME280;60655;52.182;4.474;2022-08-19T09:40:13;101514.59;;;22.32;74.76
72612;BME280;60655;52.182;4.474;2022-08-19T09:42:14;101506.25;;;22.23;73.17
72612;BME280;60655;52.182;4.474;2022-08-19T09:44:15;101513.81;;;22.27;73.95
72612;BME280;60655;52.182;4.474;2022-08-19T09:46:16;101515.16;;;22.29;74.86
72612;BME280;60655;52.182;4.474;2022-08-19T09:48:18;101519.72;;;22.39;75.17
72612;BME280;60655;52.182;4.474;2022-08-19T09:50:22;101509.97;;;22.43;75.13
72612;BME280;60655;52.182;4.474;2022-08-19T09:52:24;101515.03;;;22.54;75.08
72612;BME280;60655;52.182;4.474;2022-08-19T09:54:25;101490.97;;;22.48;75.26
72612;BME280;60655;52.182;4.474;2022-08-19T09:56:27;101521.97;;;22.71;74.62
72612;BME280;60655;52.182;4.474;2022-08-19T09:58:28;101528.22;;;22.71;73.92
72612;BME280;60655;52.182;4.474;2022-08-19T10:00:32;101510.66;;;22.64;73.67
72612;BME280;60655;52.182;4.474;2022-08-19T10:02:33;101517.38;;;22.71;72.93
72612;BME280;60655;52.182;4.474;2022-08-19T10:04:34;101526.03;;;22.73;73.09
72612;BME280;60655;52.182;4.474;2022-08-19T10:06:55;101523.53;;;22.87;71.88
72612;BME280;60655;52.182;4.474;2022-08-19T10:08:56;101521.06;;;22.90;73.01
72612;BME280;60655;52.182;4.474;2022-08-19T10:10:57;101518.53;;;23.04;72.55
72612;BME280;60655;52.182;4.474;2022-08-19T10:12:58;101518.94;;;23.21;72.07
72612;BME280;60655;52.182;4.474;2022-08-19T10:14:59;101530.69;;;23.41;71.66
72612;BME280;60655;52.182;4.474;2022-08-19T10:17:01;101524.59;;;23.25;70.43
72612;BME280;60655;52.182;4.474;2022-08-19T10:19:03;101522.91;;;23.34;69.78
72612;BME280;60655;52.182;4.474;2022-08-19T10:21:33;101524.16;;;23.42;68.61
72612;BME280;60655;52.182;4.474;2022-08-19T10:23:37;101521.88;;;23.25;69.90
72612;BME280;60655;52.182;4.474;2022-08-19T10:25:38;101522.94;;;23.29;70.35
72612;BME280;60655;52.182;4.474;2022-08-19T10:27:39;101524.88;;;23.23;70.29
72612;BME280;60655;52.182;4.474;2022-08-19T10:29:41;101521.06;;;23.24;70.54
72612;BME280;60655;52.182;4.474;2022-08-19T10:31:42;101523.56;;;23.16;70.76
72612;BME280;60655;52.182;4.474;2022-08-19T10:33:43;101530.19;;;23.05;70.95
72612;BME280;60655;52.182;4.474;2022-08-19T10:35:44;101516.94;;;22.98;70.10
72612;BME280;60655;52.182;4.474;2022-08-19T10:37:47;101522.13;;;22.95;70.32
72612;BME280;60655;52.182;4.474;2022-08-19T10:39:48;101519.66;;;22.98;70.13
72612;BME280;60655;52.182;4.474;2022-08-19T10:41:49;101523.44;;;23.02;70.59
72612;BME280;60655;52.182;4.474;2022-08-19T10:43:51;101526.56;;;22.80;70.81
72612;BME280;60655;52.182;4.474;2022-08-19T10:45:55;101516.00;;;22.74;71.29
72612;BME280;60655;52.182;4.474;2022-08-19T10:47:57;101521.72;;;22.67;71.72